Impacts METAR Board
IDs:

KLAS - Las Vegas/McCarran I, NV, US

Updated at: 2300 UTC 01 Mar 2021
Potential Impact None Slight Moderate High
Time 01/11Z 01/12Z 01/13Z 01/14Z 01/15Z 01/16Z 01/17Z 01/18Z 01/19Z 01/20Z 01/21Z 01/22Z 01/23Z
Temp40 40 38 38 41 46 49 52 54 56 56 58 59
Dewpt2 2 -0 2 4 4 2 3 3 3 3 2 2
Altim30.30 30.31 30.32 30.34 30.36 30.37 30.38 30.38 30.37 30.33 30.28 30.25 30.23
VIS10 10 10 10 10 10 10 10 10 10 10 10 10
CIG-- -- -- -- -- -- -- -- -- -- -- -- --
CoverCLRCLRCLRCLRCLRCLRCLRCLRCLRCLRCLRCLRCLR
FltCatVFRVFRVFRVFRVFRVFRVFRVFRVFRVFRVFRVFRVFR
WX--------------------------
WDir2600000130030808000310
WSpd5 0 0 0 0 3 0 7 6 4 3 0 5
WGst-- -- -- -- -- -- -- -- -- -- -- -- --
Raw hourly METARs
KLAS 011056Z 26005KT 10SM CLR 04/M17 A3030 RMK AO2 SLP263 T00441167 $
KLAS 011156Z 00000KT 10SM CLR 04/M17 A3031 RMK AO2 SLP266 T00441167 10078 20039 55001 $
KLAS 011256Z 00000KT 10SM CLR 03/M18 A3032 RMK AO2 SLP271 T00331178 $
KLAS 011356Z 00000KT 10SM CLR 03/M17 A3034 RMK AO2 SLP277 T00331167 $
KLAS 011456Z 00000KT 10SM CLR 05/M16 A3036 RMK AO2 SLP282 T00501156 53014 $
KLAS 011556Z 13003KT 10SM CLR 08/M16 A3037 RMK AO2 SLP286 T00781156 $
KLAS 011656Z 00000KT 10SM CLR 09/M17 A3038 RMK AO2 SLP289 T00941167
KLAS 011756Z 03007KT 10SM CLR 11/M16 A3038 RMK AO2 SLP287 T01111161 10111 20028 50007
KLAS 011856Z 08006KT 10SM CLR 12/M16 A3037 RMK AO2 SLP282 T01221161
KLAS 011956Z 08004KT 10SM CLR 13/M16 A3033 RMK AO2 SLP271 T01331161
KLAS 012056Z VRB03KT 10SM CLR 13/M16 A3028 RMK AO2 SLP255 T01331161 58030
KLAS 012156Z 00000KT 10SM CLR 14/M17 A3025 RMK AO2 SLP242 T01441167
KLAS 012256Z 31005KT 10SM CLR 15/M17 A3023 RMK AO2 SLP236 T01501167



Page loaded:  23:11 UTC  |   03:11 PM Pacific  |   04:11 PM Mountain  |   05:11 PM Central  |   06:11 PM Eastern

 

ADVISORIES

FORECASTS

FORECASTS

OBSERVATIONS

USER TOOLS

ABOUT US